Language: 


Des rapports , des résumés tant et plus, au choix de chacun....


Données statistiques de la station
Quotidien Rapport Mars 26, 2017 Unités:  Métrique    Anglais   les deux
« Précédent Jour
Suivant Jour »
Quotidien Hebdomadaire Mensuel Annuel Actuel
  Haut: Bas: Moyen:
Température: 18.3 °C 5.2 °C 11.2 °C
Pt de rosée: 6.0 °C -0.9 °C 3.3 °C
Humidité: 82 % 40 % 60 %
Vitesse du vent: 20.9 km/h 0.0 km/h 11.6 km/h
Rafales: 26.7 km/h - -
Vent:- - ENE
Pression: 1022.9 hPa 1019.9 hPa -
Précipitation: 0.0 mm    
Historical Graphs
 
 
Données statistiques pour Mars 26, 2017
Heure Température Point de rosée Pression Vent Vitesse du vent Refales Humidité Pluie (taux horaire)
00:02 8.3 °C -0.9 °C 1021.9 hPa NE 13.0 km/h 19.1 km/h 52 % 0.0 mm
00:07 8.4 °C -0.9 °C 1021.9 hPa ENE 14.0 km/h 19.1 km/h 52 % 0.0 mm
00:12 8.4 °C -0.9 °C 1021.9 hPa NE 13.7 km/h 21.2 km/h 52 % 0.0 mm
00:17 8.4 °C -0.9 °C 1021.9 hPa North 20.9 km/h 25.6 km/h 52 % 0.0 mm
00:22 8.4 °C -0.9 °C 1021.9 hPa ENE 16.3 km/h 26.7 km/h 52 % 0.0 mm
00:27 8.3 °C -0.9 °C 1021.9 hPa NE 19.8 km/h 26.7 km/h 52 % 0.0 mm
00:32 8.3 °C -0.7 °C 1021.9 hPa NE 14.0 km/h 24.8 km/h 53 % 0.0 mm
00:37 8.2 °C -0.8 °C 1021.9 hPa ENE 14.0 km/h 24.8 km/h 53 % 0.0 mm
00:42 8.1 °C -0.9 °C 1021.9 hPa NE 13.7 km/h 21.2 km/h 53 % 0.0 mm
00:47 8.1 °C -0.7 °C 1021.9 hPa ENE 10.1 km/h 19.5 km/h 54 % 0.0 mm
00:52 7.9 °C -0.8 °C 1021.9 hPa ENE 11.9 km/h 15.1 km/h 54 % 0.0 mm
00:57 7.8 °C -0.9 °C 1021.9 hPa NE 12.2 km/h 14.8 km/h 54 % 0.0 mm
01:02 7.7 °C -0.7 °C 1021.9 hPa NE 10.5 km/h 16.6 km/h 55 % 0.0 mm
01:07 7.7 °C -0.5 °C 1021.9 hPa ENE 12.2 km/h 16.6 km/h 56 % 0.0 mm
01:12 7.7 °C -0.6 °C 1022.9 hPa NE 12.6 km/h 15.8 km/h 56 % 0.0 mm
01:17 7.7 °C -0.3 °C 1022.9 hPa ENE 13.7 km/h 15.8 km/h 57 % 0.0 mm
01:22 7.6 °C -0.4 °C 1022.9 hPa NE 10.8 km/h 15.4 km/h 57 % 0.0 mm
01:27 7.6 °C -0.4 °C 1021.9 hPa NE 9.7 km/h 13.7 km/h 57 % 0.0 mm
01:32 7.3 °C -0.6 °C 1021.9 hPa NE 9.0 km/h 14.0 km/h 57 % 0.0 mm
01:37 7.3 °C -0.5 °C 1021.9 hPa NE 11.9 km/h 16.6 km/h 58 % 0.0 mm
01:42 7.2 °C -0.3 °C 1021.9 hPa NE 12.6 km/h 16.6 km/h 59 % 0.0 mm
01:47 7.2 °C -0.1 °C 1021.9 hPa NE 14.0 km/h 16.3 km/h 60 % 0.0 mm
01:52 7.2 °C -0.1 °C 1021.9 hPa NE 12.2 km/h 16.9 km/h 60 % 0.0 mm
01:57 7.2 °C -0.1 °C 1021.9 hPa NE 13.7 km/h 16.9 km/h 60 % 0.0 mm
03:02 7.1 °C -0.2 °C 1021.9 hPa NE 11.9 km/h 13.7 km/h 60 % 0.0 mm
03:07 7.1 °C 0.1 °C 1021.9 hPa NE 16.3 km/h 16.9 km/h 61 % 0.0 mm
03:12 6.9 °C -0.3 °C 1021.9 hPa NE 14.0 km/h 17.2 km/h 60 % 0.0 mm
03:17 6.9 °C -0.3 °C 1021.9 hPa NE 14.0 km/h 17.7 km/h 60 % 0.0 mm
03:22 6.8 °C -0.4 °C 1021.9 hPa NE 15.8 km/h 17.7 km/h 60 % 0.0 mm
03:27 6.7 °C -0.3 °C 1021.9 hPa NE 14.0 km/h 16.6 km/h 61 % 0.0 mm
03:32 6.6 °C -0.2 °C 1021.9 hPa NNE 15.4 km/h 16.6 km/h 62 % 0.0 mm
03:37 6.4 °C -0.1 °C 1021.9 hPa NE 12.6 km/h 16.3 km/h 63 % 0.0 mm
03:42 6.4 °C -0.2 °C 1021.9 hPa NE 14.0 km/h 15.4 km/h 63 % 0.0 mm
03:47 6.4 °C 0.1 °C 1021.9 hPa ENE 12.2 km/h 17.2 km/h 64 % 0.0 mm
03:52 6.3 °C -0.1 °C 1020.9 hPa ENE 12.6 km/h 17.2 km/h 64 % 0.0 mm
03:57 6.3 °C 0.2 °C 1020.9 hPa NE 12.6 km/h 15.8 km/h 65 % 0.0 mm
04:02 6.3 °C 0.2 °C 1020.9 hPa NE 16.3 km/h 16.3 km/h 65 % 0.0 mm
04:07 6.2 °C 0.1 °C 1020.9 hPa NE 12.6 km/h 16.3 km/h 65 % 0.0 mm
04:12 6.2 °C 0.3 °C 1020.9 hPa NE 11.9 km/h 16.3 km/h 66 % 0.0 mm
04:17 6.2 °C 0.3 °C 1020.9 hPa ENE 13.7 km/h 15.8 km/h 66 % 0.0 mm
04:18 6.2 °C 0.3 °C 1020.9 hPa NE 12.6 km/h 15.8 km/h 66 % 0.0 mm
04:23 6.2 °C 0.3 °C 1021.9 hPa ENE 9.7 km/h 15.8 km/h 66 % 0.0 mm
04:28 6.1 °C 0.2 °C 1021.9 hPa NE 13.0 km/h 16.3 km/h 66 % 0.0 mm
04:33 6.1 °C 0.4 °C 1021.9 hPa NE 13.7 km/h 16.3 km/h 67 % 0.0 mm
04:38 6.2 °C 0.5 °C 1020.9 hPa NE 12.2 km/h 15.4 km/h 67 % 0.0 mm
04:43 6.1 °C 0.4 °C 1020.9 hPa NE 11.9 km/h 15.4 km/h 67 % 0.0 mm
04:48 6.1 °C 0.4 °C 1020.9 hPa NE 14.0 km/h 14.0 km/h 67 % 0.0 mm
04:53 6.1 °C 0.4 °C 1020.9 hPa NE 12.2 km/h 14.0 km/h 67 % 0.0 mm
04:58 6.0 °C 0.3 °C 1020.9 hPa NE 10.5 km/h 14.0 km/h 67 % 0.0 mm
05:03 6.0 °C 0.3 °C 1020.9 hPa NE 10.5 km/h 14.0 km/h 67 % 0.0 mm
05:08 5.9 °C 0.4 °C 1019.9 hPa NE 14.0 km/h 14.0 km/h 68 % 0.0 mm
05:13 5.9 °C 0.4 °C 1019.9 hPa NE 13.0 km/h 16.9 km/h 68 % 0.0 mm
05:18 5.9 °C 0.4 °C 1019.9 hPa NE 12.6 km/h 17.2 km/h 68 % 0.0 mm
05:23 6.0 °C 0.7 °C 1020.9 hPa NE 10.5 km/h 17.2 km/h 69 % 0.0 mm
05:28 5.9 °C 0.6 °C 1020.9 hPa NE 15.8 km/h 15.8 km/h 69 % 0.0 mm
05:33 6.0 °C 0.7 °C 1020.9 hPa NE 16.9 km/h 16.9 km/h 69 % 0.0 mm
05:38 6.0 °C 0.7 °C 1019.9 hPa NE 13.7 km/h 16.9 km/h 69 % 0.0 mm
05:43 6.0 °C 0.9 °C 1019.9 hPa NE 12.6 km/h 16.9 km/h 70 % 0.0 mm
05:48 6.0 °C 0.9 °C 1019.9 hPa NE 10.5 km/h 16.9 km/h 70 % 0.0 mm
05:53 5.9 °C 0.8 °C 1020.9 hPa ENE 10.5 km/h 14.3 km/h 70 % 0.0 mm
05:58 5.8 °C 1.1 °C 1020.9 hPa ENE 13.0 km/h 15.4 km/h 72 % 0.0 mm
06:03 5.8 °C 1.1 °C 1020.9 hPa NE 12.2 km/h 15.4 km/h 72 % 0.0 mm
06:08 5.8 °C 1.3 °C 1020.9 hPa NE 11.9 km/h 16.3 km/h 73 % 0.0 mm
06:13 5.7 °C 1.2 °C 1020.9 hPa ENE 12.2 km/h 16.3 km/h 73 % 0.0 mm
06:18 5.7 °C 1.2 °C 1020.9 hPa NE 13.0 km/h 13.7 km/h 73 % 0.0 mm
06:23 5.7 °C 1.4 °C 1021.9 hPa NE 10.5 km/h 14.0 km/h 74 % 0.0 mm
06:28 5.7 °C 1.4 °C 1021.9 hPa NE 13.7 km/h 17.2 km/h 74 % 0.0 mm
06:33 5.7 °C 1.6 °C 1021.9 hPa NE 15.4 km/h 17.7 km/h 75 % 0.0 mm
06:38 5.8 °C 1.7 °C 1020.9 hPa NE 12.6 km/h 17.7 km/h 75 % 0.0 mm
06:43 5.7 °C 1.6 °C 1020.9 hPa ENE 16.3 km/h 17.7 km/h 75 % 0.0 mm
06:48 5.7 °C 1.6 °C 1020.9 hPa NE 13.7 km/h 16.9 km/h 75 % 0.0 mm
06:53 5.7 °C 1.6 °C 1021.9 hPa NE 9.0 km/h 16.9 km/h 75 % 0.0 mm
06:58 5.6 °C 1.5 °C 1021.9 hPa NE 7.9 km/h 13.7 km/h 75 % 0.0 mm
07:03 5.5 °C 1.4 °C 1021.9 hPa NE 7.6 km/h 13.7 km/h 75 % 0.0 mm
07:08 5.3 °C 1.2 °C 1021.9 hPa ENE 13.0 km/h 13.0 km/h 75 % 0.0 mm
07:13 5.3 °C 1.4 °C 1021.9 hPa ENE 11.6 km/h 13.0 km/h 76 % 0.0 mm
07:18 5.3 °C 1.6 °C 1021.9 hPa ENE 10.5 km/h 13.0 km/h 77 % 0.0 mm
07:23 5.2 °C 1.5 °C 1021.9 hPa NE 9.3 km/h 12.6 km/h 77 % 0.0 mm
07:29 5.3 °C 1.8 °C 1021.9 hPa ENE 9.3 km/h 12.6 km/h 78 % 0.0 mm
07:34 5.3 °C 1.8 °C 1021.9 hPa NE 7.9 km/h 12.6 km/h 78 % 0.0 mm
07:39 5.2 °C 1.7 °C 1021.9 hPa NE 10.1 km/h 14.0 km/h 78 % 0.0 mm
07:44 5.3 °C 1.9 °C 1021.9 hPa NE 12.2 km/h 14.0 km/h 79 % 0.0 mm
07:49 5.3 °C 2.1 °C 1021.9 hPa ENE 8.7 km/h 13.7 km/h 80 % 0.0 mm
07:54 5.3 °C 2.1 °C 1021.9 hPa ENE 14.3 km/h 14.3 km/h 80 % 0.0 mm
07:59 5.5 °C 2.5 °C 1021.9 hPa ENE 13.0 km/h 14.3 km/h 81 % 0.0 mm
08:04 5.6 °C 2.8 °C 1021.9 hPa ENE 10.5 km/h 16.9 km/h 82 % 0.0 mm
08:09 5.7 °C 2.8 °C 1021.9 hPa ENE 11.6 km/h 16.9 km/h 82 % 0.0 mm
08:14 5.8 °C 2.9 °C 1021.9 hPa NE 9.0 km/h 14.0 km/h 82 % 0.0 mm
08:19 6.0 °C 3.1 °C 1021.9 hPa ENE 10.1 km/h 13.7 km/h 82 % 0.0 mm
08:24 6.2 °C 3.3 °C 1021.9 hPa ENE 12.6 km/h 14.0 km/h 82 % 0.0 mm
08:29 6.4 °C 3.5 °C 1021.9 hPa NE 11.1 km/h 16.3 km/h 82 % 0.0 mm
08:34 6.8 °C 3.8 °C 1021.9 hPa East 10.1 km/h 16.3 km/h 81 % 0.0 mm
08:39 7.2 °C 3.9 °C 1021.9 hPa ENE 12.2 km/h 16.6 km/h 80 % 0.0 mm
08:44 7.3 °C 3.9 °C 1021.9 hPa East 9.3 km/h 16.6 km/h 79 % 0.0 mm
08:49 7.7 °C 4.1 °C 1021.9 hPa ENE 9.7 km/h 15.8 km/h 78 % 0.0 mm
08:54 7.8 °C 3.9 °C 1021.9 hPa NE 10.1 km/h 14.0 km/h 76 % 0.0 mm
08:59 8.1 °C 4.1 °C 1021.9 hPa NE 9.3 km/h 14.0 km/h 76 % 0.0 mm
09:04 8.3 °C 4.2 °C 1021.9 hPa NE 10.5 km/h 14.8 km/h 75 % 0.0 mm
09:09 8.5 °C 4.2 °C 1021.9 hPa NE 9.3 km/h 17.7 km/h 74 % 0.0 mm
09:14 8.7 °C 4.3 °C 1021.9 hPa ENE 7.9 km/h 17.7 km/h 74 % 0.0 mm
09:19 8.8 °C 4.1 °C 1021.9 hPa North 10.1 km/h 17.7 km/h 72 % 0.0 mm
09:24 9.1 °C 4.3 °C 1021.9 hPa East 8.7 km/h 17.2 km/h 72 % 0.0 mm
09:29 9.3 °C 4.3 °C 1021.9 hPa East 15.4 km/h 17.7 km/h 71 % 0.0 mm
09:34 9.4 °C 4.2 °C 1021.9 hPa NE 9.7 km/h 17.7 km/h 70 % 0.0 mm
09:39 9.6 °C 4.2 °C 1021.9 hPa ENE 11.6 km/h 17.7 km/h 69 % 0.0 mm
09:44 9.8 °C 4.2 °C 1021.9 hPa NE 5.8 km/h 17.7 km/h 68 % 0.0 mm
09:49 10.0 °C 4.3 °C 1021.9 hPa NE 9.7 km/h 15.1 km/h 68 % 0.0 mm
09:54 10.2 °C 4.1 °C 1021.9 hPa East 13.0 km/h 15.4 km/h 66 % 0.0 mm
09:59 10.4 °C 4.3 °C 1021.9 hPa East 10.5 km/h 15.4 km/h 66 % 0.0 mm
10:04 10.7 °C 4.2 °C 1021.9 hPa ENE 13.7 km/h 14.0 km/h 64 % 0.0 mm
10:09 10.8 °C 4.0 °C 1021.9 hPa East 10.5 km/h 16.3 km/h 63 % 0.0 mm
10:14 11.1 °C 3.8 °C 1021.9 hPa East 12.6 km/h 16.3 km/h 61 % 0.0 mm
10:19 11.2 °C 3.7 °C 1021.9 hPa East 9.3 km/h 14.0 km/h 60 % 0.0 mm
10:24 11.4 °C 3.9 °C 1021.9 hPa NE 8.7 km/h 16.3 km/h 60 % 0.0 mm
10:29 11.6 °C 3.8 °C 1021.9 hPa East 9.7 km/h 16.3 km/h 59 % 0.0 mm
10:34 11.8 °C 3.8 °C 1021.9 hPa East 15.4 km/h 16.3 km/h 58 % 0.0 mm
10:39 12.1 °C 3.8 °C 1021.9 hPa NE 11.9 km/h 15.4 km/h 57 % 0.0 mm
10:44 12.2 °C 4.2 °C 1021.9 hPa NE 16.6 km/h 16.6 km/h 58 % 0.0 mm
10:50 12.2 °C 3.9 °C 1021.9 hPa East 11.6 km/h 16.6 km/h 57 % 0.0 mm
10:55 12.6 °C 4.2 °C 1021.9 hPa NE 10.5 km/h 16.3 km/h 57 % 0.0 mm
11:00 12.7 °C 4.2 °C 1021.9 hPa ENE 11.1 km/h 16.3 km/h 56 % 0.0 mm
11:05 12.7 °C 3.7 °C 1021.9 hPa ENE 14.3 km/h 16.6 km/h 54 % 0.0 mm
11:10 13.1 °C 4.3 °C 1021.9 hPa ENE 6.9 km/h 16.6 km/h 55 % 0.0 mm
11:15 13.1 °C 3.8 °C 1021.9 hPa ENE 9.3 km/h 14.0 km/h 53 % 0.0 mm
11:20 13.2 °C 3.8 °C 1021.9 hPa East 11.6 km/h 17.2 km/h 53 % 0.0 mm
11:25 13.4 °C 4.1 °C 1021.9 hPa ENE 12.2 km/h 17.2 km/h 53 % 0.0 mm
11:30 13.4 °C 3.8 °C 1021.9 hPa NE 9.3 km/h 16.9 km/h 52 % 0.0 mm
11:33 13.6 °C 4.2 °C 1021.9 hPa East 9.0 km/h 16.9 km/h 53 % 0.0 mm
11:38 13.6 °C 3.7 °C 1021.9 hPa NE 10.1 km/h 16.6 km/h 51 % 0.0 mm
11:43 13.7 °C 3.8 °C 1021.9 hPa East 12.6 km/h 17.7 km/h 51 % 0.0 mm
11:48 13.7 °C 3.5 °C 1021.9 hPa East 14.0 km/h 17.7 km/h 50 % 0.0 mm
11:53 14.1 °C 4.1 °C 1022.9 hPa NE 13.7 km/h 17.7 km/h 51 % 0.0 mm
11:58 14.2 °C 4.2 °C 1022.9 hPa ENE 16.9 km/h 17.7 km/h 51 % 0.0 mm
12:03 14.2 °C 3.9 °C 1022.9 hPa East 12.6 km/h 20.6 km/h 50 % 0.0 mm
12:08 14.1 °C 3.8 °C 1021.9 hPa East 16.6 km/h 20.6 km/h 50 % 0.0 mm
12:13 14.4 °C 4.1 °C 1021.9 hPa NE 16.6 km/h 18.3 km/h 50 % 0.0 mm
12:18 14.5 °C 4.2 °C 1021.9 hPa ENE 20.9 km/h 20.9 km/h 50 % 0.0 mm
12:23 14.6 °C 4.0 °C 1021.9 hPa NE 13.0 km/h 20.9 km/h 49 % 0.0 mm
12:28 14.8 °C 4.2 °C 1021.9 hPa East 13.7 km/h 20.9 km/h 49 % 0.0 mm
12:34 14.9 °C 4.3 °C 1021.9 hPa ENE 14.0 km/h 17.2 km/h 49 % 0.0 mm
12:39 15.0 °C 4.3 °C 1022.9 hPa East 9.7 km/h 16.9 km/h 49 % 0.0 mm
12:44 15.2 °C 4.6 °C 1022.9 hPa NE 7.9 km/h 16.9 km/h 49 % 0.0 mm
12:49 15.4 °C 4.7 °C 1022.9 hPa East 10.1 km/h 16.3 km/h 49 % 0.0 mm
12:54 15.6 °C 4.9 °C 1021.9 hPa ENE 10.1 km/h 15.4 km/h 49 % 0.0 mm
12:55 15.6 °C 4.9 °C 1021.9 hPa East 9.3 km/h 15.4 km/h 49 % 0.0 mm
13:00 15.6 °C 4.6 °C 1021.9 hPa East 9.0 km/h 16.6 km/h 48 % 0.0 mm
13:05 15.6 °C 4.6 °C 1021.9 hPa East 18.3 km/h 18.3 km/h 48 % 0.0 mm
13:10 15.6 °C 4.6 °C 1021.9 hPa NE 11.9 km/h 18.3 km/h 48 % 0.0 mm
13:15 15.6 °C 4.6 °C 1021.9 hPa NE 12.6 km/h 15.8 km/h 48 % 0.0 mm
13:20 15.9 °C 4.9 °C 1021.9 hPa NE 15.8 km/h 16.3 km/h 48 % 0.0 mm
13:25 16.0 °C 4.9 °C 1021.9 hPa ENE 13.7 km/h 17.7 km/h 48 % 0.0 mm
13:26 16.1 °C 5.1 °C 1021.9 hPa NE 11.1 km/h 17.7 km/h 48 % 0.0 mm
13:31 16.0 °C 4.7 °C 1021.9 hPa ENE 13.7 km/h 17.7 km/h 47 % 0.0 mm
13:36 16.3 °C 5.2 °C 1021.9 hPa ENE 13.7 km/h 17.7 km/h 48 % 0.0 mm
13:41 16.4 °C 5.1 °C 1021.9 hPa SE 11.9 km/h 16.6 km/h 47 % 0.0 mm
13:46 16.7 °C 5.3 °C 1021.9 hPa ESE 16.3 km/h 16.9 km/h 47 % 0.0 mm
13:51 16.4 °C 5.1 °C 1021.9 hPa ENE 14.0 km/h 17.7 km/h 47 % 0.0 mm
13:56 16.7 °C 5.3 °C 1021.9 hPa ENE 7.9 km/h 19.5 km/h 47 % 0.0 mm
14:01 16.4 °C 5.1 °C 1021.9 hPa NE 12.2 km/h 19.5 km/h 47 % 0.0 mm
14:06 16.1 °C 4.7 °C 1021.9 hPa ENE 16.3 km/h 18.0 km/h 47 % 0.0 mm
14:11 16.4 °C 5.0 °C 1020.9 hPa NE 14.0 km/h 17.7 km/h 47 % 0.0 mm
14:16 16.6 °C 5.2 °C 1020.9 hPa East 14.0 km/h 17.2 km/h 47 % 0.0 mm
14:21 16.8 °C 5.1 °C 1020.9 hPa NE 12.6 km/h 17.2 km/h 46 % 0.0 mm
14:26 17.1 °C 5.3 °C 1021.9 hPa ENE 13.7 km/h 17.2 km/h 46 % 0.0 mm
14:31 17.2 °C 5.1 °C 1021.9 hPa ENE 12.2 km/h 16.3 km/h 45 % 0.0 mm
14:36 17.3 °C 5.6 °C 1021.9 hPa ENE 12.6 km/h 14.0 km/h 46 % 0.0 mm
14:41 17.3 °C 5.3 °C 1021.9 hPa East 15.8 km/h 15.8 km/h 45 % 0.0 mm
14:46 16.9 °C 4.9 °C 1021.9 hPa East 13.7 km/h 16.6 km/h 45 % 0.0 mm
14:51 17.1 °C 5.0 °C 1021.9 hPa East 11.6 km/h 19.5 km/h 45 % 0.0 mm
14:56 16.7 °C 5.0 °C 1020.9 hPa NE 14.0 km/h 19.5 km/h 46 % 0.0 mm
15:01 17.2 °C 5.1 °C 1020.9 hPa East 13.7 km/h 19.5 km/h 45 % 0.0 mm
15:06 17.2 °C 5.5 °C 1020.9 hPa ENE 14.0 km/h 15.4 km/h 46 % 0.0 mm
15:11 17.2 °C 5.2 °C 1020.9 hPa East 11.9 km/h 17.2 km/h 45 % 0.0 mm
15:16 17.2 °C 5.1 °C 1020.9 hPa ENE 14.0 km/h 17.2 km/h 45 % 0.0 mm
15:21 17.3 °C 5.3 °C 1020.9 hPa East 11.9 km/h 16.9 km/h 45 % 0.0 mm
15:24 17.3 °C 4.9 °C 1020.9 hPa East 9.7 km/h 16.9 km/h 44 % 0.0 mm
15:29 17.2 °C 4.9 °C 1020.9 hPa East 9.0 km/h 17.2 km/h 44 % 0.0 mm
15:34 17.1 °C 4.7 °C 1020.9 hPa NE 9.0 km/h 17.2 km/h 44 % 0.0 mm
15:39 17.1 °C 4.7 °C 1020.9 hPa East 10.5 km/h 14.0 km/h 44 % 0.0 mm
15:44 16.8 °C 4.5 °C 1020.9 hPa NE 6.9 km/h 13.0 km/h 44 % 0.0 mm
15:49 17.6 °C 5.2 °C 1020.9 hPa ESE 9.0 km/h 13.0 km/h 44 % 0.0 mm
15:54 17.7 °C 4.9 °C 1019.9 hPa ESE 14.0 km/h 17.7 km/h 43 % 0.0 mm
15:59 17.7 °C 5.0 °C 1019.9 hPa NE 9.0 km/h 17.7 km/h 43 % 0.0 mm
16:04 17.9 °C 5.2 °C 1019.9 hPa ENE 9.7 km/h 17.2 km/h 43 % 0.0 mm
16:09 18.1 °C 5.3 °C 1020.9 hPa ENE 13.7 km/h 16.6 km/h 43 % 0.0 mm
16:14 18.1 °C 5.3 °C 1020.9 hPa East 13.7 km/h 14.3 km/h 43 % 0.0 mm
16:19 18.1 °C 5.0 °C 1020.9 hPa East 12.2 km/h 16.6 km/h 42 % 0.0 mm
16:24 18.2 °C 5.1 °C 1019.9 hPa ENE 10.5 km/h 16.6 km/h 42 % 0.0 mm
16:30 18.2 °C 5.1 °C 1019.9 hPa ESE 17.2 km/h 17.2 km/h 42 % 0.0 mm
16:35 18.3 °C 5.2 °C 1019.9 hPa ENE 5.5 km/h 17.2 km/h 42 % 0.0 mm
16:40 18.2 °C 4.7 °C 1020.9 hPa East 12.6 km/h 17.2 km/h 41 % 0.0 mm
16:45 18.1 °C 4.7 °C 1020.9 hPa East 13.0 km/h 16.6 km/h 41 % 0.0 mm
16:50 18.1 °C 4.7 °C 1020.9 hPa ENE 9.7 km/h 14.3 km/h 41 % 0.0 mm
16:55 18.1 °C 4.3 °C 1020.9 hPa NE 9.3 km/h 15.4 km/h 40 % 0.0 mm
17:00 18.2 °C 4.4 °C 1020.9 hPa East 9.0 km/h 15.4 km/h 40 % 0.0 mm
17:05 17.7 °C 3.9 °C 1020.9 hPa ENE 11.9 km/h 16.3 km/h 40 % 0.0 mm
17:10 17.8 °C 4.1 °C 1020.9 hPa East 11.9 km/h 16.3 km/h 40 % 0.0 mm
17:15 17.7 °C 3.9 °C 1020.9 hPa ENE 13.0 km/h 14.0 km/h 40 % 0.0 mm
17:20 17.7 °C 3.9 °C 1020.9 hPa ENE 12.2 km/h 15.8 km/h 40 % 0.0 mm
17:21 17.7 °C 3.9 °C 1020.9 hPa NE 9.3 km/h 15.8 km/h 40 % 0.0 mm
17:27 17.4 °C 3.7 °C 1020.9 hPa East 13.0 km/h 17.2 km/h 40 % 0.0 mm
17:32 17.6 °C 3.8 °C 1020.9 hPa ENE 10.1 km/h 17.2 km/h 40 % 0.0 mm
17:37 17.6 °C 3.8 °C 1020.9 hPa East 13.7 km/h 13.7 km/h 40 % 0.0 mm
17:42 17.4 °C 3.7 °C 1020.9 hPa East 9.0 km/h 13.7 km/h 40 % 0.0 mm
17:47 17.6 °C 4.1 °C 1020.9 hPa NE 10.1 km/h 16.9 km/h 41 % 0.0 mm
17:51 17.4 °C 4.1 °C 1020.9 hPa ENE 9.0 km/h 16.9 km/h 41 % 0.0 mm
17:57 17.2 °C 3.5 °C 1021.9 hPa ENE 10.5 km/h 17.2 km/h 40 % 0.0 mm
18:02 17.2 °C 3.8 °C 1021.9 hPa East 5.8 km/h 17.2 km/h 41 % 0.0 mm
18:07 17.1 °C 3.7 °C 1020.9 hPa East 14.0 km/h 15.4 km/h 41 % 0.0 mm
18:12 16.9 °C 3.6 °C 1020.9 hPa ENE 10.5 km/h 15.4 km/h 41 % 0.0 mm
18:17 16.8 °C 3.5 °C 1020.9 hPa East 11.6 km/h 13.7 km/h 41 % 0.0 mm
18:22 16.9 °C 3.6 °C 1020.9 hPa East 10.1 km/h 16.6 km/h 41 % 0.0 mm
18:27 16.8 °C 3.4 °C 1020.9 hPa ENE 11.9 km/h 16.6 km/h 41 % 0.0 mm
18:32 16.6 °C 3.2 °C 1020.9 hPa ENE 10.1 km/h 16.3 km/h 41 % 0.0 mm
18:37 16.6 °C 3.2 °C 1020.9 hPa ESE 12.2 km/h 16.6 km/h 41 % 0.0 mm
18:42 16.4 °C 3.2 °C 1020.9 hPa East 13.0 km/h 16.6 km/h 41 % 0.0 mm
18:47 16.4 °C 3.1 °C 1020.9 hPa ENE 9.0 km/h 15.8 km/h 41 % 0.0 mm
18:52 16.1 °C 2.8 °C 1020.9 hPa ENE 10.5 km/h 14.0 km/h 41 % 0.0 mm
18:57 15.8 °C 2.6 °C 1020.9 hPa ENE 8.7 km/h 14.0 km/h 41 % 0.0 mm
19:02 15.4 °C 3.2 °C 1020.9 hPa ENE 10.1 km/h 17.7 km/h 44 % 0.0 mm
19:07 15.0 °C 3.8 °C 1020.9 hPa NE 10.1 km/h 17.7 km/h 47 % 0.0 mm
19:12 14.7 °C 4.1 °C 1020.9 hPa NE 12.6 km/h 16.6 km/h 49 % 0.0 mm
19:17 14.3 °C 4.8 °C 1020.9 hPa NE 13.7 km/h 16.9 km/h 53 % 0.0 mm
19:22 14.1 °C 5.2 °C 1020.9 hPa North 16.3 km/h 23.3 km/h 55 % 0.0 mm
19:27 13.9 °C 5.3 °C 1020.9 hPa NNE 14.0 km/h 23.3 km/h 56 % 0.0 mm
19:32 13.7 °C 5.3 °C 1020.9 hPa NE 16.9 km/h 21.2 km/h 57 % 0.0 mm
19:37 13.5 °C 5.7 °C 1020.9 hPa NE 16.3 km/h 20.1 km/h 59 % 0.0 mm
19:42 13.3 °C 5.7 °C 1020.9 hPa NE 17.2 km/h 20.1 km/h 60 % 0.0 mm
19:47 13.2 °C 5.9 °C 1020.9 hPa NE 15.4 km/h 17.7 km/h 61 % 0.0 mm
19:52 13.1 °C 5.7 °C 1019.9 hPa NE 14.0 km/h 17.7 km/h 61 % 0.0 mm
19:57 12.8 °C 5.5 °C 1019.9 hPa NE 13.0 km/h 17.7 km/h 61 % 0.0 mm
20:02 12.7 °C 5.8 °C 1019.9 hPa NE 8.7 km/h 16.9 km/h 63 % 0.0 mm
20:07 12.4 °C 5.6 °C 1019.9 hPa NE 10.5 km/h 16.9 km/h 63 % 0.0 mm
20:12 12.2 °C 5.6 °C 1019.9 hPa NE 10.1 km/h 14.0 km/h 64 % 0.0 mm
20:17 12.2 °C 5.8 °C 1019.9 hPa NE 13.0 km/h 15.8 km/h 65 % 0.0 mm
20:23 12.1 °C 5.7 °C 1020.9 hPa NNE 13.0 km/h 15.8 km/h 65 % 0.0 mm
20:28 11.8 °C 5.7 °C 1020.9 hPa NNE 10.5 km/h 15.8 km/h 66 % 0.0 mm
20:33 11.8 °C 5.6 °C 1020.9 hPa ENE 12.2 km/h 14.0 km/h 66 % 0.0 mm
20:38 11.7 °C 5.7 °C 1020.9 hPa NE 12.6 km/h 16.6 km/h 67 % 0.0 mm
20:43 11.6 °C 5.8 °C 1020.9 hPa NNE 12.6 km/h 16.9 km/h 68 % 0.0 mm
20:48 11.4 °C 6.0 °C 1020.9 hPa NE 13.0 km/h 16.9 km/h 69 % 0.0 mm
20:53 11.4 °C 5.9 °C 1020.9 hPa NE 12.6 km/h 14.0 km/h 69 % 0.0 mm
20:58 11.3 °C 5.8 °C 1020.9 hPa NNE 9.3 km/h 14.0 km/h 69 % 0.0 mm
21:03 11.1 °C 5.6 °C 1020.9 hPa NNE 10.5 km/h 14.0 km/h 69 % 0.0 mm
21:08 10.9 °C 5.4 °C 1020.9 hPa NE 10.1 km/h 11.9 km/h 69 % 0.0 mm
21:13 10.9 °C 5.8 °C 1020.9 hPa NE 13.0 km/h 15.4 km/h 71 % 0.0 mm
21:18 10.8 °C 5.7 °C 1020.9 hPa NE 11.9 km/h 15.4 km/h 71 % 0.0 mm
21:23 10.7 °C 5.6 °C 1021.9 hPa ENE 10.5 km/h 14.3 km/h 71 % 0.0 mm
21:28 10.6 °C 5.6 °C 1021.9 hPa NE 9.3 km/h 12.6 km/h 71 % 0.0 mm
21:33 10.3 °C 5.4 °C 1021.9 hPa NE 5.0 km/h 13.0 km/h 72 % 0.0 mm
21:38 10.1 °C 5.3 °C 1020.9 hPa NE 9.0 km/h 13.0 km/h 72 % 0.0 mm
21:43 10.0 °C 5.4 °C 1020.9 hPa NNE 6.1 km/h 12.2 km/h 73 % 0.0 mm
21:48 9.8 °C 5.2 °C 1020.9 hPa North 9.0 km/h 12.2 km/h 73 % 0.0 mm
21:53 9.5 °C 5.1 °C 1021.9 hPa North 10.1 km/h 12.2 km/h 74 % 0.0 mm
21:58 9.5 °C 5.3 °C 1021.9 hPa NNW 9.0 km/h 12.6 km/h 75 % 0.0 mm
22:03 9.4 °C 5.4 °C 1021.9 hPa NNE 9.3 km/h 12.6 km/h 76 % 0.0 mm
22:08 9.3 °C 5.3 °C 1021.9 hPa NE 10.1 km/h 12.6 km/h 76 % 0.0 mm
22:13 9.3 °C 5.3 °C 1021.9 hPa NNE 8.7 km/h 13.0 km/h 76 % 0.0 mm
22:18 9.3 °C 5.5 °C 1021.9 hPa NE 9.3 km/h 13.0 km/h 77 % 0.0 mm
22:23 9.3 °C 5.5 °C 1021.9 hPa NE 13.0 km/h 13.0 km/h 77 % 0.0 mm
22:28 9.4 °C 5.8 °C 1021.9 hPa ENE 11.9 km/h 14.0 km/h 78 % 0.0 mm
22:33 9.4 °C 5.8 °C 1021.9 hPa NE 7.9 km/h 14.0 km/h 78 % 0.0 mm
22:38 9.3 °C 5.5 °C 1021.9 hPa ENE 10.1 km/h 12.6 km/h 77 % 0.0 mm
22:43 9.3 °C 5.5 °C 1021.9 hPa ENE 7.6 km/h 12.6 km/h 77 % 0.0 mm
22:48 9.2 °C 5.4 °C 1021.9 hPa ENE 7.9 km/h 11.6 km/h 77 % 0.0 mm
22:53 9.1 °C 5.3 °C 1021.9 hPa ENE 7.2 km/h 10.5 km/h 77 % 0.0 mm
22:58 9.1 °C 5.3 °C 1021.9 hPa NE 7.6 km/h 10.5 km/h 77 % 0.0 mm
23:03 9.0 °C 5.2 °C 1021.9 hPa NE 8.7 km/h 10.1 km/h 77 % 0.0 mm
23:08 8.9 °C 4.9 °C 1021.9 hPa NE 4.7 km/h 9.3 km/h 76 % 0.0 mm
23:13 8.6 °C 4.6 °C 1021.9 hPa Calm   8.7 km/h 76 % 0.0 mm
23:18 8.5 °C 4.6 °C 1021.9 hPa NNE 1.8 km/h 5.8 km/h 76 % 0.0 mm
23:23 8.3 °C 4.3 °C 1021.9 hPa NE 4.3 km/h 5.8 km/h 76 % 0.0 mm
23:28 8.2 °C 4.2 °C 1021.9 hPa NNE 5.0 km/h 7.6 km/h 76 % 0.0 mm
23:33 8.1 °C 4.2 °C 1021.9 hPa NNE 5.5 km/h 7.6 km/h 76 % 0.0 mm
23:38 7.9 °C 4.2 °C 1021.9 hPa NNE 5.8 km/h 8.7 km/h 77 % 0.0 mm
23:43 7.9 °C 4.3 °C 1021.9 hPa NE 9.3 km/h 10.5 km/h 78 % 0.0 mm
23:48 7.9 °C 4.5 °C 1021.9 hPa NE 5.8 km/h 10.5 km/h 79 % 0.0 mm
23:53 7.9 °C 4.7 °C 1021.9 hPa NNE 9.7 km/h 10.5 km/h 80 % 0.0 mm
23:58 7.8 °C 4.6 °C 1021.9 hPa NE 6.9 km/h 10.1 km/h 80 % 0.0 mm
Le Gheer Warneton
Courtoisie de Weather Underground - 2.25 mb

Mise a jour : 17-12-17 07:14:12
Généré par Cumulus 1.9.4 (1099)